sensor_id;sensor_type;location;lat;lon;timestamp;pressure;altitude;pressure_sealevel;temperature;humidity
3832;BME280;12460;42.662;23.288;2023-04-29T00:09:08;94574.22;;;10.36;45.20
3832;BME280;12460;42.662;23.288;2023-04-29T00:24:13;94592.47;;;10.20;46.12
3832;BME280;12460;42.662;23.288;2023-04-29T00:39:18;94588.25;;;9.89;47.50
3832;BME280;12460;42.662;23.288;2023-04-29T00:54:22;94582.81;;;9.91;47.24
3832;BME280;12460;42.662;23.288;2023-04-29T01:09:37;94564.16;;;9.71;48.10
3832;BME280;12460;42.662;23.288;2023-04-29T01:24:45;94545.28;;;9.56;48.49
3832;BME280;12460;42.662;23.288;2023-04-29T01:40:11;94553.72;;;9.41;48.78
3832;BME280;12460;42.662;23.288;2023-04-29T01:55:41;94549.25;;;9.31;49.41
3832;BME280;12460;42.662;23.288;2023-04-29T02:10:54;94548.50;;;9.07;50.67
3832;BME280;12460;42.662;23.288;2023-04-29T02:26:08;94548.50;;;9.07;50.28
3832;BME280;12460;42.662;23.288;2023-04-29T02:41:19;94542.16;;;8.84;50.99
3832;BME280;12460;42.662;23.288;2023-04-29T02:56:23;94557.63;;;8.63;51.23
3832;BME280;12460;42.662;23.288;2023-04-29T03:11:27;94569.78;;;8.50;52.06
3832;BME280;12460;42.662;23.288;2023-04-29T03:26:32;94578.72;;;8.41;51.49
3832;BME280;12460;42.662;23.288;2023-04-29T03:41:38;94600.03;;;8.52;52.22
3832;BME280;12460;42.662;23.288;2023-04-29T03:56:44;94591.13;;;8.76;51.55
3832;BME280;12460;42.662;23.288;2023-04-29T04:11:49;94592.44;;;8.82;51.61
3832;BME280;12460;42.662;23.288;2023-04-29T04:26:54;94600.84;;;9.58;50.80
3832;BME280;12460;42.662;23.288;2023-04-29T04:42:13;94598.63;;;10.26;49.20
3832;BME280;12460;42.662;23.288;2023-04-29T04:57:21;94598.91;;;10.78;47.91
3832;BME280;12460;42.662;23.288;2023-04-29T05:12:27;94581.97;;;10.93;47.57
3832;BME280;12460;42.662;23.288;2023-04-29T05:27:36;94573.31;;;10.98;47.87
3832;BME280;12460;42.662;23.288;2023-04-29T05:42:44;94556.53;;;11.74;45.89
3832;BME280;12460;42.662;23.288;2023-04-29T05:57:50;94563.50;;;13.32;42.46
3832;BME280;12460;42.662;23.288;2023-04-29T06:12:55;94561.97;;;15.22;38.38
3832;BME280;12460;42.662;23.288;2023-04-29T06:27:59;94558.06;;;18.83;32.49
3832;BME280;12460;42.662;23.288;2023-04-29T06:43:05;94559.13;;;20.63;29.78
3832;BME280;12460;42.662;23.288;2023-04-29T06:58:26;94544.38;;;22.54;27.22
3832;BME280;12460;42.662;23.288;2023-04-29T07:13:31;94524.19;;;21.38;27.27
3832;BME280;12460;42.662;23.288;2023-04-29T07:28:35;94532.22;;;23.24;25.47
3832;BME280;12460;42.662;23.288;2023-04-29T07:43:40;94514.63;;;24.27;23.96
3832;BME280;12460;42.662;23.288;2023-04-29T07:58:45;94503.94;;;24.10;23.87
3832;BME280;12460;42.662;23.288;2023-04-29T08:13:50;94503.41;;;25.67;21.88
3832;BME280;12460;42.662;23.288;2023-04-29T08:28:55;94493.03;;;23.68;23.41
3832;BME280;12460;42.662;23.288;2023-04-29T08:44:00;94482.41;;;24.31;23.11
3832;BME280;12460;42.662;23.288;2023-04-29T08:59:04;94461.44;;;24.91;22.79
3832;BME280;12460;42.662;23.288;2023-04-29T09:14:11;94462.69;;;26.05;21.37
3832;BME280;12460;42.662;23.288;2023-04-29T09:29:15;94434.47;;;25.26;22.01
3832;BME280;12460;42.662;23.288;2023-04-29T09:44:29;94436.31;;;25.89;21.74
3832;BME280;12460;42.662;23.288;2023-04-29T09:59:38;94416.84;;;26.70;21.36
3832;BME280;12460;42.662;23.288;2023-04-29T10:14:55;94387.03;;;27.21;20.98
3832;BME280;12460;42.662;23.288;2023-04-29T10:30:01;94374.34;;;25.62;20.82
3832;BME280;12460;42.662;23.288;2023-04-29T10:45:24;94380.25;;;24.95;21.66
3832;BME280;12460;42.662;23.288;2023-04-29T11:00:36;94369.13;;;24.83;21.24
3832;BME280;12460;42.662;23.288;2023-04-29T11:15:42;94350.69;;;24.25;21.95
3832;BME280;12460;42.662;23.288;2023-04-29T11:30:48;94363.84;;;23.50;21.32
3832;BME280;12460;42.662;23.288;2023-04-29T11:45:53;94356.50;;;22.33;22.43
3832;BME280;12460;42.662;23.288;2023-04-29T12:00:57;94358.84;;;21.86;22.93
3832;BME280;12460;42.662;23.288;2023-04-29T12:16:03;94354.66;;;21.22;25.10
3832;BME280;12460;42.662;23.288;2023-04-29T12:31:09;94340.34;;;21.22;26.09
3832;BME280;12460;42.662;23.288;2023-04-29T12:46:20;94329.69;;;21.40;26.54
3832;BME280;12460;42.662;23.288;2023-04-29T13:01:24;94324.34;;;21.66;26.37
3832;BME280;12460;42.662;23.288;2023-04-29T13:16:29;94310.00;;;21.99;28.14
3832;BME280;12460;42.662;23.288;2023-04-29T13:31:34;94318.38;;;21.78;28.30
3832;BME280;12460;42.662;23.288;2023-04-29T13:46:38;94312.41;;;21.05;28.99
3832;BME280;12460;42.662;23.288;2023-04-29T14:01:42;94291.97;;;21.79;27.99
3832;BME280;12460;42.662;23.288;2023-04-29T14:16:50;94284.03;;;21.78;27.89
3832;BME280;12460;42.662;23.288;2023-04-29T14:31:55;94260.09;;;21.36;28.37
3832;BME280;12460;42.662;23.288;2023-04-29T14:47:00;94262.34;;;21.22;28.74
3832;BME280;12460;42.662;23.288;2023-04-29T15:02:07;94251.75;;;21.24;28.25
3832;BME280;12460;42.662;23.288;2023-04-29T15:17:12;94234.00;;;20.95;28.75
3832;BME280;12460;42.662;23.288;2023-04-29T15:32:17;94232.69;;;20.49;28.85
3832;BME280;12460;42.662;23.288;2023-04-29T15:47:21;94220.44;;;19.86;30.19
3832;BME280;12460;42.662;23.288;2023-04-29T16:02:24;94230.94;;;19.52;30.91
3832;BME280;12460;42.662;23.288;2023-04-29T16:17:30;94226.47;;;19.20;31.85
3832;BME280;12460;42.662;23.288;2023-04-29T16:32:34;94236.56;;;18.94;32.44
3832;BME280;12460;42.662;23.288;2023-04-29T16:47:41;94260.00;;;18.51;34.32
3832;BME280;12460;42.662;23.288;2023-04-29T17:02:45;94270.91;;;18.30;34.13
3832;BME280;12460;42.662;23.288;2023-04-29T17:17:53;94272.63;;;17.96;37.20
3832;BME280;12460;42.662;23.288;2023-04-29T17:32:59;94279.94;;;17.37;38.69
3832;BME280;12460;42.662;23.288;2023-04-29T17:48:09;94287.75;;;17.36;40.36
3832;BME280;12460;42.662;23.288;2023-04-29T18:03:15;94286.50;;;16.80;47.42
3832;BME280;12460;42.662;23.288;2023-04-29T18:18:19;94289.34;;;16.45;50.44
3832;BME280;12460;42.662;23.288;2023-04-29T18:33:24;94291.69;;;16.25;52.47
3832;BME280;12460;42.662;23.288;2023-04-29T18:48:30;94303.28;;;16.18;52.82
3832;BME280;12460;42.662;23.288;2023-04-29T19:03:33;94306.25;;;15.75;53.96
3832;BME280;12460;42.662;23.288;2023-04-29T19:18:39;94293.84;;;15.48;53.37
3832;BME280;12460;42.662;23.288;2023-04-29T19:33:44;94315.84;;;15.70;52.30
3832;BME280;12460;42.662;23.288;2023-04-29T19:48:48;94301.31;;;15.64;51.97
3832;BME280;12460;42.662;23.288;2023-04-29T20:03:53;94315.91;;;15.82;52.64
3832;BME280;12460;42.662;23.288;2023-04-29T20:18:58;94296.16;;;15.72;52.97
3832;BME280;12460;42.662;23.288;2023-04-29T20:34:03;94307.09;;;15.66;53.21
3832;BME280;12460;42.662;23.288;2023-04-29T20:49:07;94290.47;;;15.61;52.85
3832;BME280;12460;42.662;23.288;2023-04-29T21:04:11;94297.13;;;15.65;53.04
3832;BME280;12460;42.662;23.288;2023-04-29T21:19:15;94292.16;;;15.54;51.78
3832;BME280;12460;42.662;23.288;2023-04-29T21:34:21;94292.63;;;15.51;51.10
3832;BME280;12460;42.662;23.288;2023-04-29T21:49:26;94292.50;;;15.27;52.07
3832;BME280;12460;42.662;23.288;2023-04-29T22:04:31;94297.25;;;15.13;53.46
3832;BME280;12460;42.662;23.288;2023-04-29T22:19:36;94290.84;;;14.92;54.11
3832;BME280;12460;42.662;23.288;2023-04-29T22:34:41;94286.16;;;14.85;54.41
3832;BME280;12460;42.662;23.288;2023-04-29T22:49:45;94269.97;;;14.54;54.05
3832;BME280;12460;42.662;23.288;2023-04-29T23:04:50;94255.34;;;14.18;55.31
3832;BME280;12460;42.662;23.288;2023-04-29T23:19:55;94237.69;;;13.77;55.66
3832;BME280;12460;42.662;23.288;2023-04-29T23:35:00;94235.69;;;13.49;56.32
3832;BME280;12460;42.662;23.288;2023-04-29T23:50:05;94233.38;;;13.26;56.63
